createdAt,value
2023-01-21T00:00:58.792Z,8.50
2023-01-21T00:03:25.543Z,7.70
2023-01-21T00:05:52.330Z,10.07
2023-01-21T00:08:18.977Z,10.77
2023-01-21T00:10:45.699Z,9.03
2023-01-21T00:13:12.336Z,6.87
2023-01-21T00:15:39.159Z,9.30
2023-01-21T00:18:07.878Z,11.50
2023-01-21T00:20:34.655Z,6.43
2023-01-21T00:23:01.509Z,9.40
2023-01-21T00:25:28.495Z,11.43
2023-01-21T00:27:55.193Z,10.53
2023-01-21T00:30:22.497Z,7.50
2023-01-21T00:32:49.094Z,12.73
2023-01-21T00:35:16.106Z,13.57
2023-01-21T00:37:42.879Z,12.10
2023-01-21T00:40:10.041Z,12.20
2023-01-21T00:42:36.747Z,10.87
2023-01-21T00:45:03.704Z,12.77
2023-01-21T00:47:30.384Z,18.17
2023-01-21T00:49:57.097Z,14.47
2023-01-21T00:52:23.841Z,11.63
2023-01-21T00:54:50.491Z,23.67
2023-01-21T00:57:17.196Z,12.30
2023-01-21T00:59:44.084Z,20.17
2023-01-21T01:02:10.953Z,18.97
2023-01-21T01:04:37.657Z,18.27
2023-01-21T01:07:04.679Z,15.80
2023-01-21T01:09:31.780Z,18.83
2023-01-21T01:11:58.795Z,18.03
2023-01-21T01:14:25.647Z,21.57
2023-01-21T01:16:52.464Z,19.33
2023-01-21T01:19:19.087Z,16.60
2023-01-21T01:21:45.846Z,15.97
2023-01-21T01:24:12.391Z,12.27
2023-01-21T01:26:41.843Z,11.83
2023-01-21T01:29:12.560Z,15.43
2023-01-21T01:31:39.331Z,15.10
2023-01-21T01:34:06.080Z,17.63
2023-01-21T01:36:32.680Z,15.57
2023-01-21T01:38:59.270Z,14.43
2023-01-21T01:41:28.766Z,12.27
2023-01-21T01:43:59.826Z,16.53
2023-01-21T01:46:29.238Z,11.43
2023-01-21T01:49:18.995Z,11.13
2023-01-21T01:52:03.178Z,16.27
2023-01-21T01:54:34.269Z,11.70
2023-01-21T01:57:05.281Z,18.70
2023-01-21T01:59:33.271Z,17.17
2023-01-21T02:02:06.714Z,19.33
2023-01-21T02:04:40.389Z,17.47
2023-01-21T02:07:07.647Z,14.43
2023-01-21T02:09:34.543Z,15.90
2023-01-21T02:12:03.627Z,18.80
2023-01-21T02:14:31.750Z,10.87
2023-01-21T02:17:17.429Z,14.03
2023-01-21T02:20:22.005Z,15.30
2023-01-21T02:23:10.252Z,13.57
2023-01-21T02:25:42.597Z,11.80
2023-01-21T02:28:43.609Z,13.00
2023-01-21T02:31:28.565Z,12.63
2023-01-21T02:34:16.991Z,12.33
2023-01-21T02:37:02.885Z,18.63
2023-01-21T02:40:04.837Z,11.50
2023-01-21T02:42:42.030Z,11.37
2023-01-21T02:45:29.945Z,11.47
2023-01-21T02:48:20.200Z,13.73
2023-01-21T02:50:53.147Z,11.00
2023-01-21T02:53:31.775Z,14.00
2023-01-21T02:56:06.369Z,12.40
2023-01-21T02:58:36.509Z,13.40
2023-01-21T03:01:27.890Z,14.87
2023-01-21T03:04:27.013Z,19.57
2023-01-21T03:06:56.519Z,13.63
2023-01-21T03:09:29.664Z,14.10
2023-01-21T03:12:23.997Z,16.13
2023-01-21T03:15:20.615Z,16.33
2023-01-21T03:18:01.152Z,16.20
2023-01-21T03:20:33.021Z,13.70
2023-01-21T03:23:06.381Z,15.57
2023-01-21T03:25:35.219Z,16.53
2023-01-21T03:28:08.306Z,21.13
2023-01-21T03:30:37.516Z,14.20
2023-01-21T03:33:05.802Z,11.57
2023-01-21T03:35:37.744Z,14.43
2023-01-21T03:38:12.086Z,10.37
2023-01-21T03:40:48.165Z,15.67
2023-01-21T03:43:14.937Z,15.23
2023-01-21T03:45:54.777Z,17.03
2023-01-21T03:48:32.052Z,17.90
2023-01-21T03:51:10.285Z,15.90
2023-01-21T03:53:37.008Z,9.43
2023-01-21T03:56:04.599Z,12.67
2023-01-21T03:58:31.341Z,21.83
2023-01-21T04:00:58.033Z,16.97
2023-01-21T04:03:24.698Z,13.07
2023-01-21T04:05:51.645Z,13.07
2023-01-21T04:08:18.181Z,13.57
2023-01-21T04:10:44.862Z,15.43
2023-01-21T04:13:11.474Z,12.47
2023-01-21T04:15:38.017Z,20.57
2023-01-21T04:18:04.622Z,12.83
2023-01-21T04:20:31.570Z,19.77
2023-01-21T04:22:58.274Z,15.40
2023-01-21T04:25:25.000Z,14.93
2023-01-21T04:27:51.574Z,13.27
2023-01-21T04:30:18.495Z,16.10
2023-01-21T04:32:46.572Z,14.33
2023-01-21T04:35:13.306Z,16.57
2023-01-21T04:37:39.925Z,20.57
2023-01-21T04:40:07.114Z,16.63
2023-01-21T04:42:33.757Z,19.23
2023-01-21T04:45:00.359Z,12.77
2023-01-21T04:47:27.020Z,20.77
2023-01-21T04:49:53.709Z,17.27
2023-01-21T04:52:20.357Z,16.20
2023-01-21T04:54:47.095Z,22.17
2023-01-21T04:57:13.834Z,16.30
2023-01-21T04:59:40.330Z,13.23
2023-01-21T05:02:06.907Z,11.83
2023-01-21T05:04:33.584Z,19.70
2023-01-21T05:07:00.327Z,14.47
2023-01-21T05:09:27.365Z,14.53
2023-01-21T05:11:53.955Z,19.77
2023-01-21T05:14:20.636Z,9.93
2023-01-21T05:16:47.367Z,18.70
2023-01-21T05:19:14.023Z,13.83
2023-01-21T05:21:40.758Z,17.73
2023-01-21T05:24:07.967Z,23.93
2023-01-21T05:26:34.606Z,14.53
2023-01-21T05:29:01.226Z,18.20
2023-01-21T05:31:27.837Z,17.43
2023-01-21T05:33:56.883Z,15.17
2023-01-21T05:36:23.999Z,19.70
2023-01-21T05:38:50.504Z,12.87
2023-01-21T05:41:18.006Z,16.43
2023-01-21T05:43:44.796Z,13.53
2023-01-21T05:46:11.557Z,13.03
2023-01-21T05:48:38.166Z,19.47
2023-01-21T05:51:05.472Z,13.00
2023-01-21T05:53:32.138Z,18.83
2023-01-21T05:55:59.063Z,11.20
2023-01-21T05:58:26.062Z,11.80
2023-01-21T06:00:52.883Z,11.23
2023-01-21T06:03:19.910Z,16.87
2023-01-21T06:05:49.253Z,11.53
2023-01-21T06:08:16.309Z,19.40
2023-01-21T06:10:42.908Z,7.90
2023-01-21T06:13:12.861Z,6.77
2023-01-21T06:15:39.756Z,11.27
2023-01-21T06:18:06.480Z,18.00
2023-01-21T06:20:33.284Z,11.43
2023-01-21T06:23:02.161Z,9.70
2023-01-21T06:25:28.813Z,8.47
2023-01-21T06:27:56.172Z,13.83
2023-01-21T06:30:24.547Z,11.83
2023-01-21T06:32:51.503Z,14.20
2023-01-21T06:35:18.877Z,14.03
2023-01-21T06:37:46.177Z,16.03
2023-01-21T06:40:13.967Z,13.33
2023-01-21T06:42:40.677Z,15.53
2023-01-21T06:45:07.919Z,10.37
2023-01-21T06:47:35.381Z,12.23
2023-01-21T06:50:01.973Z,11.77
2023-01-21T06:52:28.605Z,14.83
2023-01-21T06:54:55.233Z,11.10
2023-01-21T06:57:22.097Z,11.10
2023-01-21T06:59:48.730Z,18.13
2023-01-21T07:02:15.380Z,15.13
2023-01-21T07:04:42.137Z,12.57
2023-01-21T07:07:08.752Z,9.87
2023-01-21T07:09:35.261Z,12.67
2023-01-21T07:12:01.962Z,10.43
2023-01-21T07:14:28.629Z,15.27
2023-01-21T07:16:55.323Z,11.13
2023-01-21T07:19:21.908Z,21.73
2023-01-21T07:21:48.615Z,17.90
2023-01-21T07:24:15.081Z,16.30
2023-01-21T07:26:41.938Z,19.00
2023-01-21T07:29:09.337Z,13.93
2023-01-21T07:31:36.236Z,14.83
2023-01-21T07:34:03.924Z,16.13
2023-01-21T07:36:30.508Z,17.17
2023-01-21T07:38:57.503Z,19.57
2023-01-21T07:41:24.431Z,18.40
2023-01-21T07:43:52.146Z,13.73
2023-01-21T07:46:20.130Z,14.50
2023-01-21T07:48:51.880Z,13.93
2023-01-21T07:51:22.301Z,17.50
2023-01-21T07:53:48.979Z,16.13
2023-01-21T07:56:16.476Z,20.13
2023-01-21T07:58:43.197Z,8.47
2023-01-21T08:01:10.598Z,5.67
2023-01-21T08:03:38.099Z,11.80
2023-01-21T08:06:05.723Z,13.47
2023-01-21T08:08:33.099Z,9.57
2023-01-21T08:10:59.987Z,14.30
2023-01-21T08:13:26.733Z,11.30
2023-01-21T08:15:55.334Z,10.77
2023-01-21T08:18:23.979Z,10.17
2023-01-21T08:20:55.944Z,11.50
2023-01-21T08:23:22.902Z,11.13
2023-01-21T08:25:49.709Z,8.17
2023-01-21T08:28:16.520Z,13.07
2023-01-21T08:30:43.166Z,8.63
2023-01-21T08:33:10.022Z,8.50
2023-01-21T08:35:36.601Z,5.27
2023-01-21T08:38:03.262Z,3.87
2023-01-21T08:40:29.830Z,4.27
2023-01-21T08:43:01.489Z,6.10
2023-01-21T08:45:28.917Z,6.87
2023-01-21T08:47:56.299Z,9.23
2023-01-21T08:50:23.867Z,9.57
2023-01-21T08:52:55.366Z,8.13
2023-01-21T08:55:26.795Z,7.63
2023-01-21T08:57:56.631Z,5.87
2023-01-21T09:00:24.683Z,6.83
2023-01-21T09:02:52.109Z,5.30
2023-01-21T09:05:18.996Z,3.30
2023-01-21T09:07:46.399Z,4.63
2023-01-21T09:10:13.396Z,5.50
2023-01-21T09:12:40.938Z,7.00
2023-01-21T09:15:08.081Z,4.07
2023-01-21T09:17:34.652Z,9.73
2023-01-21T09:20:01.341Z,9.97
2023-01-21T09:22:28.047Z,3.97
2023-01-21T09:24:54.874Z,7.93
2023-01-21T09:27:27.296Z,8.10
2023-01-21T09:29:55.134Z,9.17
2023-01-21T09:32:21.949Z,10.60
2023-01-21T09:34:48.670Z,5.40
2023-01-21T09:37:15.368Z,7.50
2023-01-21T09:39:42.282Z,6.17
2023-01-21T09:42:17.907Z,9.63
2023-01-21T09:44:49.400Z,5.37
2023-01-21T09:47:33.937Z,8.20
2023-01-21T09:50:06.252Z,9.70
2023-01-21T09:52:45.118Z,7.03
2023-01-21T09:55:41.194Z,8.57
2023-01-21T09:58:19.559Z,11.47
2023-01-21T10:00:56.762Z,8.40
2023-01-21T10:03:42.938Z,6.90
2023-01-21T10:06:27.314Z,7.67
2023-01-21T10:09:07.402Z,12.53
2023-01-21T10:11:39.470Z,5.10
2023-01-21T10:14:31.250Z,8.50
2023-01-21T10:17:00.700Z,11.77
2023-01-21T10:19:39.290Z,6.07
2023-01-21T10:22:12.749Z,13.53
2023-01-21T10:24:46.843Z,8.83
2023-01-21T10:27:17.653Z,6.63
2023-01-21T10:29:44.918Z,9.80
2023-01-21T10:32:18.633Z,6.23
2023-01-21T10:34:52.581Z,13.13
2023-01-21T10:37:43.718Z,9.50
2023-01-21T10:40:45.524Z,8.60
2023-01-21T10:43:31.131Z,6.07
2023-01-21T10:46:16.618Z,9.13
2023-01-21T10:48:48.702Z,11.87
2023-01-21T10:51:29.671Z,13.07
2023-01-21T10:54:03.255Z,6.60
2023-01-21T10:56:48.862Z,9.13
2023-01-21T10:59:21.379Z,7.70
2023-01-21T11:01:52.284Z,12.63
2023-01-21T11:04:23.833Z,8.10
2023-01-21T11:07:00.429Z,4.83
2023-01-21T11:09:30.828Z,6.53
2023-01-21T11:11:57.629Z,12.43
2023-01-21T11:14:28.032Z,7.90
2023-01-21T11:16:55.969Z,5.73
2023-01-21T11:19:24.233Z,9.17
2023-01-21T11:22:05.613Z,10.43
2023-01-21T11:24:46.574Z,9.30
2023-01-21T11:27:38.416Z,21.57
2023-01-21T11:30:25.949Z,6.40
2023-01-21T11:32:53.931Z,5.87
2023-01-21T11:35:23.343Z,8.03
2023-01-21T11:37:50.066Z,7.57
2023-01-21T11:40:25.781Z,8.23
2023-01-21T11:42:57.125Z,6.77
2023-01-21T11:45:32.676Z,7.93
2023-01-21T11:48:01.197Z,6.60
2023-01-21T11:50:38.225Z,10.40
2023-01-21T11:53:14.028Z,10.13
2023-01-21T11:55:42.320Z,7.37
2023-01-21T11:58:32.998Z,14.43
2023-01-21T12:01:03.301Z,11.47
2023-01-21T12:03:42.743Z,8.30
2023-01-21T12:06:17.128Z,9.70
2023-01-21T12:08:48.277Z,4.83
2023-01-21T12:11:20.198Z,51.27
2023-01-21T12:14:08.349Z,21.97
2023-01-21T12:16:46.294Z,6.80
2023-01-21T12:19:36.300Z,13.17
2023-01-21T12:22:34.446Z,7.43
2023-01-21T12:25:38.492Z,8.97
2023-01-21T12:28:37.930Z,10.40
2023-01-21T12:31:23.906Z,6.63
2023-01-21T12:34:11.853Z,9.33
2023-01-21T12:36:55.830Z,7.93
2023-01-21T12:39:32.308Z,6.33
2023-01-21T12:42:08.262Z,6.93
2023-01-21T12:44:44.111Z,7.73
2023-01-21T12:47:27.224Z,6.50
2023-01-21T12:50:14.772Z,4.70
2023-01-21T12:53:05.626Z,11.13
2023-01-21T12:55:39.319Z,10.57
2023-01-21T12:58:13.271Z,6.70
2023-01-21T13:00:46.006Z,6.90
2023-01-21T13:03:28.100Z,5.47
2023-01-21T13:06:09.513Z,8.67
2023-01-21T13:08:55.237Z,14.83
2023-01-21T13:11:27.754Z,9.50
2023-01-21T13:14:10.148Z,13.67
2023-01-21T13:16:41.310Z,6.80
2023-01-21T13:19:13.049Z,7.17
2023-01-21T13:21:48.833Z,9.57
2023-01-21T13:24:55.489Z,7.63
2023-01-21T13:27:36.025Z,6.43
2023-01-21T13:30:29.475Z,14.70
2023-01-21T13:33:17.478Z,13.13
2023-01-21T13:36:13.371Z,7.50
2023-01-21T13:38:49.991Z,7.37
2023-01-21T13:41:30.859Z,7.90
2023-01-21T13:44:29.439Z,6.13
2023-01-21T13:47:30.229Z,7.70
2023-01-21T13:50:08.770Z,6.00
2023-01-21T13:52:57.221Z,7.90
2023-01-21T13:55:54.591Z,5.57
2023-01-21T13:58:44.455Z,11.63
2023-01-21T14:01:19.107Z,6.07
2023-01-21T14:03:58.504Z,8.70
2023-01-21T14:06:35.579Z,8.73
2023-01-21T14:09:10.047Z,9.63
2023-01-21T14:12:26.250Z,9.90
2023-01-21T14:15:07.527Z,7.43
2023-01-21T14:17:49.910Z,10.37
2023-01-21T14:20:37.684Z,10.27
2023-01-21T14:23:13.304Z,8.73
2023-01-21T14:25:57.901Z,8.10
2023-01-21T14:28:33.565Z,7.90
2023-01-21T14:31:09.487Z,9.73
2023-01-21T14:33:47.112Z,8.13
2023-01-21T14:36:30.099Z,7.97
2023-01-21T14:39:36.323Z,6.00
2023-01-21T14:42:11.919Z,12.73
2023-01-21T14:44:44.299Z,17.03
2023-01-21T14:47:17.119Z,10.40
2023-01-21T14:49:52.809Z,9.03
2023-01-21T14:52:27.829Z,9.20
2023-01-21T14:54:54.585Z,7.90
2023-01-21T14:57:38.315Z,7.07
2023-01-21T15:00:31.731Z,7.73
2023-01-21T15:03:13.289Z,8.30
2023-01-21T15:05:43.257Z,8.93
2023-01-21T15:08:24.027Z,6.57
2023-01-21T15:11:04.399Z,6.17
2023-01-21T15:13:37.901Z,6.83
2023-01-21T15:16:37.093Z,8.73
2023-01-21T15:19:09.994Z,4.83
2023-01-21T15:21:45.310Z,9.67
2023-01-21T15:24:30.768Z,9.33
2023-01-21T15:27:12.929Z,12.43
2023-01-21T15:29:43.442Z,6.63
2023-01-21T15:32:30.765Z,7.30
2023-01-21T15:35:22.176Z,7.27
2023-01-21T15:37:52.468Z,9.77
2023-01-21T15:40:25.047Z,8.17
2023-01-21T15:42:54.686Z,9.97
2023-01-21T15:45:33.035Z,10.33
2023-01-21T15:48:36.416Z,17.37
2023-01-21T15:51:23.063Z,8.43
2023-01-21T15:54:11.753Z,8.40
2023-01-21T15:56:57.513Z,7.67
2023-01-21T15:59:51.761Z,13.30
2023-01-21T16:02:39.533Z,14.13
2023-01-21T16:05:16.333Z,8.67
2023-01-21T16:08:04.715Z,20.37
2023-01-21T16:10:43.118Z,9.57
2023-01-21T16:13:23.627Z,11.10
2023-01-21T16:16:12.800Z,6.57
2023-01-21T16:19:00.802Z,6.47
2023-01-21T16:21:37.484Z,6.83
2023-01-21T16:24:10.093Z,8.33
2023-01-21T16:26:36.743Z,20.87
2023-01-21T16:29:11.334Z,10.03
2023-01-21T16:31:48.165Z,12.93
2023-01-21T16:34:15.618Z,7.07
2023-01-21T16:36:42.247Z,9.13
2023-01-21T16:39:11.737Z,9.33
2023-01-21T16:41:39.821Z,8.70
2023-01-21T16:44:06.643Z,9.50
2023-01-21T16:46:37.680Z,10.87
2023-01-21T16:49:12.255Z,7.27
2023-01-21T16:51:42.079Z,8.57
2023-01-21T16:54:18.194Z,9.63
2023-01-21T16:56:50.674Z,14.07
2023-01-21T16:59:38.472Z,16.70
2023-01-21T17:02:15.977Z,10.43
2023-01-21T17:04:42.716Z,9.47
2023-01-21T17:07:26.686Z,13.60
2023-01-21T17:10:17.692Z,7.47
2023-01-21T17:12:55.181Z,8.87
2023-01-21T17:15:38.686Z,6.77
2023-01-21T17:18:09.473Z,9.37
2023-01-21T17:20:42.664Z,19.50
2023-01-21T17:23:18.779Z,10.27
2023-01-21T17:25:54.889Z,9.70
2023-01-21T17:28:32.238Z,7.10
2023-01-21T17:31:21.559Z,7.80
2023-01-21T17:34:01.997Z,6.93
2023-01-21T17:36:39.826Z,12.87
2023-01-21T17:39:09.296Z,8.17
2023-01-21T17:41:38.817Z,5.93
2023-01-21T17:44:19.685Z,12.03
2023-01-21T17:46:47.933Z,10.97
2023-01-21T17:49:20.458Z,6.63
2023-01-21T17:51:49.429Z,7.57
2023-01-21T17:54:26.117Z,10.37
2023-01-21T17:57:00.400Z,7.53
2023-01-21T17:59:41.272Z,7.63
2023-01-21T18:02:13.333Z,8.67
2023-01-21T18:04:40.891Z,8.00
2023-01-21T18:07:35.603Z,6.27
2023-01-21T18:10:03.061Z,8.80
2023-01-21T18:12:29.787Z,9.30
2023-01-21T18:14:56.362Z,8.90
2023-01-21T18:17:25.031Z,6.40
2023-01-21T18:19:51.808Z,7.23
2023-01-21T18:22:32.011Z,9.43
2023-01-21T18:25:00.424Z,8.67
2023-01-21T18:27:27.027Z,10.03
2023-01-21T18:29:54.106Z,9.90
2023-01-21T18:32:20.829Z,8.93
2023-01-21T18:34:47.536Z,6.40
2023-01-21T18:37:17.328Z,7.00
2023-01-21T18:39:44.035Z,9.90
2023-01-21T18:42:15.783Z,9.17
2023-01-21T18:44:43.242Z,7.07
2023-01-21T18:47:15.389Z,8.63
2023-01-21T18:49:42.381Z,3.93
2023-01-21T18:52:17.622Z,4.03
2023-01-21T18:54:44.481Z,4.63
2023-01-21T18:57:22.622Z,6.10
2023-01-21T18:59:49.393Z,5.00
2023-01-21T19:02:18.848Z,4.10
2023-01-21T19:04:46.799Z,6.47
2023-01-21T19:07:19.305Z,7.07
2023-01-21T19:09:46.880Z,6.90
2023-01-21T19:12:16.575Z,8.60
2023-01-21T19:14:43.355Z,6.20
2023-01-21T19:17:12.742Z,4.63
2023-01-21T19:19:39.937Z,7.33
2023-01-21T19:22:10.615Z,5.23
2023-01-21T19:24:37.268Z,7.53
2023-01-21T19:27:03.992Z,3.03
2023-01-21T19:29:30.763Z,6.57
2023-01-21T19:31:57.329Z,4.50
2023-01-21T19:34:26.263Z,3.40
2023-01-21T19:36:53.710Z,5.57
2023-01-21T19:39:24.087Z,5.57
2023-01-21T19:42:03.413Z,5.60
2023-01-21T19:44:34.110Z,5.50
2023-01-21T19:47:01.476Z,3.20
2023-01-21T19:49:28.246Z,3.97
2023-01-21T19:51:54.863Z,4.37
2023-01-21T19:54:21.630Z,4.10
2023-01-21T19:56:48.297Z,3.40
2023-01-21T19:59:16.243Z,2.63
2023-01-21T20:01:44.463Z,3.53
2023-01-21T20:04:11.296Z,5.43
2023-01-21T20:06:40.466Z,2.37
2023-01-21T20:09:11.332Z,3.47
2023-01-21T20:11:38.074Z,5.17
2023-01-21T20:14:04.714Z,3.17
2023-01-21T20:16:31.505Z,3.40
2023-01-21T20:19:02.151Z,2.80
2023-01-21T20:21:28.949Z,3.17
2023-01-21T20:23:55.539Z,1.93
2023-01-21T20:26:27.009Z,3.17
2023-01-21T20:28:54.728Z,3.87
2023-01-21T20:31:21.663Z,1.50
2023-01-21T20:33:48.549Z,3.43
2023-01-21T20:36:20.035Z,8.10
2023-01-21T20:38:46.768Z,3.33
2023-01-21T20:41:13.962Z,4.17
2023-01-21T20:43:40.812Z,1.60
2023-01-21T20:46:15.510Z,3.97
2023-01-21T20:48:44.144Z,3.00
2023-01-21T20:51:11.572Z,2.50
2023-01-21T20:53:38.811Z,3.63
2023-01-21T20:56:19.611Z,2.93
2023-01-21T20:58:48.077Z,2.73
2023-01-21T21:01:16.505Z,4.07
2023-01-21T21:03:43.710Z,2.07
2023-01-21T21:06:16.657Z,1.87
2023-01-21T21:08:43.940Z,2.20
2023-01-21T21:11:11.525Z,2.57
2023-01-21T21:13:38.260Z,1.47
2023-01-21T21:16:37.577Z,2.60
2023-01-21T21:19:04.404Z,1.27
2023-01-21T21:21:30.982Z,4.67
2023-01-21T21:23:57.795Z,2.10
2023-01-21T21:26:33.362Z,1.87
2023-01-21T21:29:00.065Z,2.30
2023-01-21T21:31:32.101Z,3.23
2023-01-21T21:33:58.999Z,3.23
2023-01-21T21:36:25.553Z,2.67
2023-01-21T21:38:55.735Z,2.27
2023-01-21T21:41:43.246Z,2.30
2023-01-21T21:44:10.891Z,1.97
2023-01-21T21:46:57.135Z,2.20
2023-01-21T21:49:24.185Z,2.40
2023-01-21T21:51:50.795Z,2.37
2023-01-21T21:54:18.646Z,1.87
2023-01-21T21:56:46.199Z,2.37
2023-01-21T21:59:13.308Z,1.87
2023-01-21T22:01:42.002Z,2.20
2023-01-21T22:04:08.712Z,2.07
2023-01-21T22:06:35.358Z,4.07
2023-01-21T22:09:02.097Z,2.43
2023-01-21T22:11:29.397Z,4.60
2023-01-21T22:13:56.535Z,3.00
2023-01-21T22:16:26.462Z,2.07
2023-01-21T22:18:54.218Z,9.60
2023-01-21T22:21:23.580Z,3.20
2023-01-21T22:23:51.063Z,1.43
2023-01-21T22:26:21.276Z,3.03
2023-01-21T22:28:48.591Z,3.17
2023-01-21T22:31:27.623Z,2.63
2023-01-21T22:33:55.367Z,3.30
2023-01-21T22:36:25.501Z,2.20
2023-01-21T22:38:52.610Z,2.47
2023-01-21T22:41:21.741Z,5.20
2023-01-21T22:43:49.902Z,5.30
2023-01-21T22:46:19.840Z,3.00
2023-01-21T22:48:46.962Z,3.17
2023-01-21T22:51:15.888Z,3.40
2023-01-21T22:53:45.891Z,2.03
2023-01-21T22:56:15.554Z,2.20
2023-01-21T22:58:42.620Z,3.20
2023-01-21T23:01:19.865Z,2.73
2023-01-21T23:03:46.421Z,2.67
2023-01-21T23:06:13.286Z,1.80
2023-01-21T23:08:40.015Z,3.30
2023-01-21T23:11:08.219Z,3.57
2023-01-21T23:13:35.570Z,3.40
2023-01-21T23:16:02.426Z,3.60
2023-01-21T23:18:29.537Z,1.90
2023-01-21T23:20:56.817Z,4.03
2023-01-21T23:23:24.858Z,2.97
2023-01-21T23:25:51.644Z,3.07
2023-01-21T23:28:18.369Z,2.13
2023-01-21T23:30:45.061Z,2.27
2023-01-21T23:33:12.219Z,1.97
2023-01-21T23:35:38.974Z,1.27
2023-01-21T23:38:05.576Z,1.73
2023-01-21T23:40:32.317Z,4.33
2023-01-21T23:42:58.932Z,1.60
2023-01-21T23:45:25.622Z,2.13
2023-01-21T23:47:52.238Z,3.03
2023-01-21T23:50:19.026Z,2.23
2023-01-21T23:52:45.746Z,1.93
2023-01-21T23:55:12.979Z,1.67
2023-01-21T23:57:39.697Z,1.73
